Ceres, Washington
Current Conditions -  °F | °C
As of 2:55 AM on Thursday 27 Nov 2014 (Local Time) from KCLS Reporting Station
NA  
Wind Chill: 54°   Ceiling: NA
Heat Index: 54°   Visibility: 10mi
Dew Point: 52°   Wind: 6mph
Humidity: 94%   Direction: 180°S
Pressure: 29.92"   Gusts: NA
Location:  46.6561°N, 122.993°W
Report Text: KCLS 271055Z AUTO 18005KT 10SM 12/11 A2992 RMK AO2
Loading
Personal Weather Stations






























Interactive Weather Map New forecast layout! Learn more

10-Day Weather Forecast

Advertisements
Track Severe Weather on mobile